sensor_id;sensor_type;location;lat;lon;timestamp;temperature;humidity
14122;DHT22;7139;48.114;11.442;2022-12-07T00:01:19;3.80;99.90
14122;DHT22;7139;48.114;11.442;2022-12-07T00:03:48;3.80;99.90
14122;DHT22;7139;48.114;11.442;2022-12-07T00:06:16;3.80;99.90
14122;DHT22;7139;48.114;11.442;2022-12-07T00:08:43;3.80;99.90
14122;DHT22;7139;48.114;11.442;2022-12-07T00:11:15;3.70;99.90
14122;DHT22;7139;48.114;11.442;2022-12-07T00:13:42;3.80;99.90
14122;DHT22;7139;48.114;11.442;2022-12-07T00:16:11;3.70;99.90
14122;DHT22;7139;48.114;11.442;2022-12-07T00:18:39;3.70;99.90
14122;DHT22;7139;48.114;11.442;2022-12-07T00:21:08;3.70;99.90
14122;DHT22;7139;48.114;11.442;2022-12-07T00:23:35;3.70;99.90
14122;DHT22;7139;48.114;11.442;2022-12-07T00:26:06;3.60;99.90
14122;DHT22;7139;48.114;11.442;2022-12-07T00:28:35;3.60;99.90
14122;DHT22;7139;48.114;11.442;2022-12-07T00:31:04;3.70;99.90
14122;DHT22;7139;48.114;11.442;2022-12-07T00:33:31;3.60;99.90
14122;DHT22;7139;48.114;11.442;2022-12-07T00:35:59;3.60;99.90
14122;DHT22;7139;48.114;11.442;2022-12-07T00:38:28;3.70;99.90
14122;DHT22;7139;48.114;11.442;2022-12-07T00:40:56;3.70;99.90
14122;DHT22;7139;48.114;11.442;2022-12-07T00:43:23;3.70;99.90
14122;DHT22;7139;48.114;11.442;2022-12-07T00:45:51;3.80;99.90
14122;DHT22;7139;48.114;11.442;2022-12-07T00:48:18;3.80;99.90
14122;DHT22;7139;48.114;11.442;2022-12-07T00:50:45;3.80;99.90
14122;DHT22;7139;48.114;11.442;2022-12-07T00:53:13;3.80;99.90
14122;DHT22;7139;48.114;11.442;2022-12-07T00:55:39;3.80;99.90
14122;DHT22;7139;48.114;11.442;2022-12-07T00:58:06;3.80;99.90
14122;DHT22;7139;48.114;11.442;2022-12-07T01:00:35;3.80;99.90
14122;DHT22;7139;48.114;11.442;2022-12-07T01:03:04;3.80;99.90
14122;DHT22;7139;48.114;11.442;2022-12-07T01:05:31;3.90;99.90
14122;DHT22;7139;48.114;11.442;2022-12-07T01:07:57;3.90;99.90
14122;DHT22;7139;48.114;11.442;2022-12-07T01:10:24;3.80;99.90
14122;DHT22;7139;48.114;11.442;2022-12-07T01:12:51;3.80;99.90
14122;DHT22;7139;48.114;11.442;2022-12-07T01:15:18;3.80;99.90
14122;DHT22;7139;48.114;11.442;2022-12-07T01:17:45;3.80;99.90
14122;DHT22;7139;48.114;11.442;2022-12-07T01:20:13;3.80;99.90
14122;DHT22;7139;48.114;11.442;2022-12-07T01:22:42;3.80;99.90
14122;DHT22;7139;48.114;11.442;2022-12-07T01:25:11;3.80;99.90
14122;DHT22;7139;48.114;11.442;2022-12-07T01:27:38;3.80;99.90
14122;DHT22;7139;48.114;11.442;2022-12-07T01:30:06;3.80;99.90
14122;DHT22;7139;48.114;11.442;2022-12-07T01:32:33;3.80;99.90
14122;DHT22;7139;48.114;11.442;2022-12-07T01:35:00;3.70;99.90
14122;DHT22;7139;48.114;11.442;2022-12-07T01:37:32;3.70;99.90
14122;DHT22;7139;48.114;11.442;2022-12-07T01:39:59;3.70;99.90
14122;DHT22;7139;48.114;11.442;2022-12-07T01:42:26;3.70;99.90
14122;DHT22;7139;48.114;11.442;2022-12-07T01:48:11;3.70;99.90
14122;DHT22;7139;48.114;11.442;2022-12-07T01:50:40;3.80;99.90
14122;DHT22;7139;48.114;11.442;2022-12-07T01:53:10;3.80;99.90
14122;DHT22;7139;48.114;11.442;2022-12-07T01:55:40;3.80;99.90
14122;DHT22;7139;48.114;11.442;2022-12-07T01:58:09;3.80;99.90
14122;DHT22;7139;48.114;11.442;2022-12-07T02:00:36;3.70;99.90
14122;DHT22;7139;48.114;11.442;2022-12-07T02:03:06;3.80;99.90
14122;DHT22;7139;48.114;11.442;2022-12-07T02:05:34;3.80;99.90
14122;DHT22;7139;48.114;11.442;2022-12-07T02:08:03;3.80;99.90
14122;DHT22;7139;48.114;11.442;2022-12-07T02:10:32;3.80;99.90
14122;DHT22;7139;48.114;11.442;2022-12-07T02:13:02;3.80;99.90
14122;DHT22;7139;48.114;11.442;2022-12-07T02:15:37;3.80;99.90
14122;DHT22;7139;48.114;11.442;2022-12-07T02:18:09;3.80;99.90
14122;DHT22;7139;48.114;11.442;2022-12-07T02:20:42;3.80;99.90
14122;DHT22;7139;48.114;11.442;2022-12-07T02:23:32;3.80;99.90
14122;DHT22;7139;48.114;11.442;2022-12-07T02:26:32;3.80;99.90
14122;DHT22;7139;48.114;11.442;2022-12-07T02:29:19;3.80;99.90
14122;DHT22;7139;48.114;11.442;2022-12-07T02:31:53;3.80;99.90
14122;DHT22;7139;48.114;11.442;2022-12-07T02:34:29;3.80;99.90
14122;DHT22;7139;48.114;11.442;2022-12-07T02:37:01;3.90;99.90
14122;DHT22;7139;48.114;11.442;2022-12-07T02:39:34;3.80;99.90
14122;DHT22;7139;48.114;11.442;2022-12-07T02:42:11;3.80;99.90
14122;DHT22;7139;48.114;11.442;2022-12-07T02:44:40;3.90;99.90
14122;DHT22;7139;48.114;11.442;2022-12-07T02:47:11;3.90;99.90
14122;DHT22;7139;48.114;11.442;2022-12-07T02:49:40;3.80;99.90
14122;DHT22;7139;48.114;11.442;2022-12-07T02:52:07;3.80;99.90
14122;DHT22;7139;48.114;11.442;2022-12-07T02:54:34;3.80;99.90
14122;DHT22;7139;48.114;11.442;2022-12-07T02:57:05;3.80;99.90
14122;DHT22;7139;48.114;11.442;2022-12-07T02:59:44;3.80;99.90
14122;DHT22;7139;48.114;11.442;2022-12-07T03:02:18;3.80;99.90
14122;DHT22;7139;48.114;11.442;2022-12-07T03:04:54;3.80;99.90
14122;DHT22;7139;48.114;11.442;2022-12-07T03:07:29;3.80;99.90
14122;DHT22;7139;48.114;11.442;2022-12-07T03:10:03;3.80;99.90
14122;DHT22;7139;48.114;11.442;2022-12-07T03:12:40;3.80;99.90
14122;DHT22;7139;48.114;11.442;2022-12-07T03:15:14;3.80;99.90
14122;DHT22;7139;48.114;11.442;2022-12-07T03:17:44;3.80;99.90
14122;DHT22;7139;48.114;11.442;2022-12-07T03:20:14;3.80;99.90
14122;DHT22;7139;48.114;11.442;2022-12-07T03:22:44;3.80;99.90
14122;DHT22;7139;48.114;11.442;2022-12-07T03:25:14;3.80;99.90
14122;DHT22;7139;48.114;11.442;2022-12-07T03:27:45;3.80;99.90
14122;DHT22;7139;48.114;11.442;2022-12-07T03:30:17;3.80;99.90
14122;DHT22;7139;48.114;11.442;2022-12-07T03:32:49;3.80;99.90
14122;DHT22;7139;48.114;11.442;2022-12-07T03:35:21;3.80;99.90
14122;DHT22;7139;48.114;11.442;2022-12-07T03:37:51;3.80;99.90
14122;DHT22;7139;48.114;11.442;2022-12-07T03:40:25;3.80;99.90
14122;DHT22;7139;48.114;11.442;2022-12-07T03:42:54;3.80;99.90
14122;DHT22;7139;48.114;11.442;2022-12-07T03:45:26;3.80;99.90
14122;DHT22;7139;48.114;11.442;2022-12-07T03:48:03;3.80;99.90
14122;DHT22;7139;48.114;11.442;2022-12-07T03:50:39;3.80;99.90
14122;DHT22;7139;48.114;11.442;2022-12-07T03:53:11;3.80;99.90
14122;DHT22;7139;48.114;11.442;2022-12-07T03:55:42;3.80;99.90
14122;DHT22;7139;48.114;11.442;2022-12-07T03:58:11;3.80;99.90
14122;DHT22;7139;48.114;11.442;2022-12-07T04:00:40;3.80;99.90
14122;DHT22;7139;48.114;11.442;2022-12-07T04:03:07;3.70;99.90
14122;DHT22;7139;48.114;11.442;2022-12-07T04:05:34;3.70;99.90
14122;DHT22;7139;48.114;11.442;2022-12-07T04:08:01;3.70;99.90
14122;DHT22;7139;48.114;11.442;2022-12-07T04:10:28;3.70;99.90
14122;DHT22;7139;48.114;11.442;2022-12-07T04:12:55;3.70;99.90
14122;DHT22;7139;48.114;11.442;2022-12-07T04:15:22;3.70;99.90
14122;DHT22;7139;48.114;11.442;2022-12-07T04:17:50;3.70;99.90
14122;DHT22;7139;48.114;11.442;2022-12-07T04:20:17;3.60;99.90
14122;DHT22;7139;48.114;11.442;2022-12-07T04:22:44;3.60;99.90
14122;DHT22;7139;48.114;11.442;2022-12-07T04:25:11;3.60;99.90
14122;DHT22;7139;48.114;11.442;2022-12-07T04:27:37;3.60;99.90
14122;DHT22;7139;48.114;11.442;2022-12-07T04:30:05;3.60;99.90
14122;DHT22;7139;48.114;11.442;2022-12-07T04:32:32;3.70;99.90
14122;DHT22;7139;48.114;11.442;2022-12-07T04:35:00;3.70;99.90
14122;DHT22;7139;48.114;11.442;2022-12-07T04:37:27;3.60;99.90
14122;DHT22;7139;48.114;11.442;2022-12-07T04:39:54;3.60;99.90
14122;DHT22;7139;48.114;11.442;2022-12-07T04:42:21;3.60;99.90
14122;DHT22;7139;48.114;11.442;2022-12-07T04:44:47;3.60;99.90
14122;DHT22;7139;48.114;11.442;2022-12-07T04:47:14;3.60;99.90
14122;DHT22;7139;48.114;11.442;2022-12-07T04:49:41;3.50;99.90
14122;DHT22;7139;48.114;11.442;2022-12-07T04:52:09;3.50;99.90
14122;DHT22;7139;48.114;11.442;2022-12-07T04:54:36;3.50;99.90
14122;DHT22;7139;48.114;11.442;2022-12-07T04:57:03;3.50;99.90
14122;DHT22;7139;48.114;11.442;2022-12-07T04:59:30;3.40;99.90
14122;DHT22;7139;48.114;11.442;2022-12-07T05:01:56;3.40;99.90
14122;DHT22;7139;48.114;11.442;2022-12-07T05:04:23;3.30;99.90
14122;DHT22;7139;48.114;11.442;2022-12-07T05:06:50;3.30;99.90
14122;DHT22;7139;48.114;11.442;2022-12-07T05:09:18;3.30;99.90
14122;DHT22;7139;48.114;11.442;2022-12-07T05:11:45;3.30;99.90
14122;DHT22;7139;48.114;11.442;2022-12-07T05:14:14;3.30;99.90
14122;DHT22;7139;48.114;11.442;2022-12-07T05:16:42;3.30;99.90
14122;DHT22;7139;48.114;11.442;2022-12-07T05:19:09;3.30;99.90
14122;DHT22;7139;48.114;11.442;2022-12-07T05:21:37;3.30;99.90
14122;DHT22;7139;48.114;11.442;2022-12-07T05:24:06;3.30;99.90
14122;DHT22;7139;48.114;11.442;2022-12-07T05:26:34;3.30;99.90
14122;DHT22;7139;48.114;11.442;2022-12-07T05:29:00;3.30;99.90
14122;DHT22;7139;48.114;11.442;2022-12-07T05:31:27;3.30;99.90
14122;DHT22;7139;48.114;11.442;2022-12-07T05:33:54;3.30;99.90
14122;DHT22;7139;48.114;11.442;2022-12-07T05:36:22;3.40;99.90
14122;DHT22;7139;48.114;11.442;2022-12-07T05:38:49;3.90;99.90
14122;DHT22;7139;48.114;11.442;2022-12-07T05:41:18;9.70;99.90
14122;DHT22;7139;48.114;11.442;2022-12-07T05:44:04;13.30;99.50
14122;DHT22;7139;48.114;11.442;2022-12-07T05:46:31;14.00;93.00
14122;DHT22;7139;48.114;11.442;2022-12-07T05:48:58;13.30;92.30
14122;DHT22;7139;48.114;11.442;2022-12-07T05:51:25;12.00;93.40
14122;DHT22;7139;48.114;11.442;2022-12-07T05:53:51;10.70;94.60
14122;DHT22;7139;48.114;11.442;2022-12-07T05:56:18;9.40;96.20
14122;DHT22;7139;48.114;11.442;2022-12-07T05:58:45;8.40;97.80
14122;DHT22;7139;48.114;11.442;2022-12-07T06:01:31;7.60;99.20
14122;DHT22;7139;48.114;11.442;2022-12-07T06:03:58;6.80;99.90
14122;DHT22;7139;48.114;11.442;2022-12-07T06:06:24;6.10;99.90
14122;DHT22;7139;48.114;11.442;2022-12-07T06:08:51;5.60;99.90
14122;DHT22;7139;48.114;11.442;2022-12-07T06:11:18;5.20;99.90
14122;DHT22;7139;48.114;11.442;2022-12-07T06:14:02;4.90;99.90
14122;DHT22;7139;48.114;11.442;2022-12-07T06:16:30;4.60;99.90
14122;DHT22;7139;48.114;11.442;2022-12-07T06:18:57;4.40;99.90
14122;DHT22;7139;48.114;11.442;2022-12-07T06:21:24;4.20;99.90
14122;DHT22;7139;48.114;11.442;2022-12-07T06:23:52;4.00;99.90
14122;DHT22;7139;48.114;11.442;2022-12-07T06:26:19;3.80;99.90
14122;DHT22;7139;48.114;11.442;2022-12-07T06:28:46;3.70;99.90
14122;DHT22;7139;48.114;11.442;2022-12-07T06:31:13;3.70;99.90
14122;DHT22;7139;48.114;11.442;2022-12-07T06:33:41;3.60;99.90
14122;DHT22;7139;48.114;11.442;2022-12-07T06:36:09;3.60;99.90
14122;DHT22;7139;48.114;11.442;2022-12-07T06:38:35;3.60;99.90
14122;DHT22;7139;48.114;11.442;2022-12-07T06:41:02;3.60;99.90
14122;DHT22;7139;48.114;11.442;2022-12-07T06:43:29;3.60;99.90
14122;DHT22;7139;48.114;11.442;2022-12-07T06:45:56;3.50;99.90
14122;DHT22;7139;48.114;11.442;2022-12-07T06:48:23;3.50;99.90
14122;DHT22;7139;48.114;11.442;2022-12-07T06:50:51;3.40;99.90
14122;DHT22;7139;48.114;11.442;2022-12-07T06:53:18;3.50;99.90
14122;DHT22;7139;48.114;11.442;2022-12-07T06:55:45;3.50;99.90
14122;DHT22;7139;48.114;11.442;2022-12-07T06:58:11;3.40;99.90
14122;DHT22;7139;48.114;11.442;2022-12-07T07:00:38;3.40;99.90
14122;DHT22;7139;48.114;11.442;2022-12-07T07:03:05;3.30;99.90
14122;DHT22;7139;48.114;11.442;2022-12-07T07:05:32;3.40;99.90
14122;DHT22;7139;48.114;11.442;2022-12-07T07:08:08;3.30;99.90
14122;DHT22;7139;48.114;11.442;2022-12-07T07:10:35;3.20;99.90
14122;DHT22;7139;48.114;11.442;2022-12-07T07:13:02;3.30;99.90
14122;DHT22;7139;48.114;11.442;2022-12-07T07:15:29;3.30;99.90
14122;DHT22;7139;48.114;11.442;2022-12-07T07:17:57;3.30;99.90
14122;DHT22;7139;48.114;11.442;2022-12-07T07:20:24;3.30;99.90
14122;DHT22;7139;48.114;11.442;2022-12-07T07:22:51;3.30;99.90
14122;DHT22;7139;48.114;11.442;2022-12-07T07:25:21;3.30;99.90
14122;DHT22;7139;48.114;11.442;2022-12-07T07:27:48;3.20;99.90
14122;DHT22;7139;48.114;11.442;2022-12-07T07:30:15;3.20;99.90
14122;DHT22;7139;48.114;11.442;2022-12-07T07:32:42;3.20;99.90
14122;DHT22;7139;48.114;11.442;2022-12-07T07:35:09;3.30;99.90
14122;DHT22;7139;48.114;11.442;2022-12-07T07:37:35;3.30;99.90
14122;DHT22;7139;48.114;11.442;2022-12-07T07:40:03;3.30;99.90
14122;DHT22;7139;48.114;11.442;2022-12-07T07:42:31;3.30;99.90
14122;DHT22;7139;48.114;11.442;2022-12-07T07:44:57;3.30;99.90
14122;DHT22;7139;48.114;11.442;2022-12-07T07:47:24;3.30;99.90
14122;DHT22;7139;48.114;11.442;2022-12-07T07:49:51;3.30;99.90
14122;DHT22;7139;48.114;11.442;2022-12-07T07:52:18;3.30;99.90
14122;DHT22;7139;48.114;11.442;2022-12-07T07:54:45;3.20;99.90
14122;DHT22;7139;48.114;11.442;2022-12-07T07:57:11;3.20;99.90
14122;DHT22;7139;48.114;11.442;2022-12-07T07:59:39;3.30;99.90
14122;DHT22;7139;48.114;11.442;2022-12-07T08:02:07;3.30;99.90
14122;DHT22;7139;48.114;11.442;2022-12-07T08:04:47;3.30;99.90
14122;DHT22;7139;48.114;11.442;2022-12-07T08:07:15;3.30;99.90
14122;DHT22;7139;48.114;11.442;2022-12-07T08:09:42;3.30;99.90
14122;DHT22;7139;48.114;11.442;2022-12-07T08:12:09;3.40;99.90
14122;DHT22;7139;48.114;11.442;2022-12-07T08:14:36;3.40;99.90
14122;DHT22;7139;48.114;11.442;2022-12-07T08:17:04;3.40;99.90
14122;DHT22;7139;48.114;11.442;2022-12-07T08:19:31;3.40;99.90
14122;DHT22;7139;48.114;11.442;2022-12-07T08:21:58;3.50;99.90
14122;DHT22;7139;48.114;11.442;2022-12-07T08:24:24;3.40;99.90
14122;DHT22;7139;48.114;11.442;2022-12-07T08:26:51;3.50;99.90
14122;DHT22;7139;48.114;11.442;2022-12-07T08:29:19;3.50;99.90
14122;DHT22;7139;48.114;11.442;2022-12-07T08:31:46;3.50;99.90
14122;DHT22;7139;48.114;11.442;2022-12-07T08:34:14;3.50;99.90
14122;DHT22;7139;48.114;11.442;2022-12-07T08:36:41;3.50;99.90
14122;DHT22;7139;48.114;11.442;2022-12-07T08:39:08;3.50;99.90
14122;DHT22;7139;48.114;11.442;2022-12-07T08:41:35;3.50;99.90
14122;DHT22;7139;48.114;11.442;2022-12-07T08:44:02;3.40;99.90
14122;DHT22;7139;48.114;11.442;2022-12-07T08:46:32;3.40;99.90
14122;DHT22;7139;48.114;11.442;2022-12-07T08:49:06;3.50;99.90
14122;DHT22;7139;48.114;11.442;2022-12-07T08:51:36;3.50;99.90
14122;DHT22;7139;48.114;11.442;2022-12-07T08:54:05;3.40;99.90
14122;DHT22;7139;48.114;11.442;2022-12-07T08:56:33;3.40;99.90
14122;DHT22;7139;48.114;11.442;2022-12-07T08:59:00;3.40;99.90
14122;DHT22;7139;48.114;11.442;2022-12-07T09:01:28;3.40;99.90
14122;DHT22;7139;48.114;11.442;2022-12-07T09:03:54;3.40;99.90
14122;DHT22;7139;48.114;11.442;2022-12-07T09:06:21;3.50;99.90
14122;DHT22;7139;48.114;11.442;2022-12-07T09:08:52;3.50;99.90
14122;DHT22;7139;48.114;11.442;2022-12-07T09:11:21;3.60;99.90
14122;DHT22;7139;48.114;11.442;2022-12-07T09:13:48;3.60;99.90
14122;DHT22;7139;48.114;11.442;2022-12-07T09:16:15;3.60;99.90
14122;DHT22;7139;48.114;11.442;2022-12-07T09:18:41;3.60;99.90
14122;DHT22;7139;48.114;11.442;2022-12-07T09:21:09;3.60;99.90
14122;DHT22;7139;48.114;11.442;2022-12-07T09:23:35;3.60;99.90
14122;DHT22;7139;48.114;11.442;2022-12-07T09:26:04;3.70;99.90
14122;DHT22;7139;48.114;11.442;2022-12-07T09:28:31;3.70;99.90
14122;DHT22;7139;48.114;11.442;2022-12-07T09:30:58;3.70;99.90
14122;DHT22;7139;48.114;11.442;2022-12-07T09:33:25;3.80;99.90
14122;DHT22;7139;48.114;11.442;2022-12-07T09:35:52;3.80;99.90
14122;DHT22;7139;48.114;11.442;2022-12-07T09:38:19;3.90;99.90
14122;DHT22;7139;48.114;11.442;2022-12-07T09:40:47;4.00;99.90
14122;DHT22;7139;48.114;11.442;2022-12-07T09:43:17;4.00;99.90
14122;DHT22;7139;48.114;11.442;2022-12-07T09:45:46;4.00;99.90
14122;DHT22;7139;48.114;11.442;2022-12-07T09:48:17;4.00;99.90
14122;DHT22;7139;48.114;11.442;2022-12-07T09:50:45;4.00;99.90
14122;DHT22;7139;48.114;11.442;2022-12-07T09:53:24;4.10;99.90
14122;DHT22;7139;48.114;11.442;2022-12-07T09:55:52;4.10;99.90
14122;DHT22;7139;48.114;11.442;2022-12-07T09:58:24;4.00;99.90
14122;DHT22;7139;48.114;11.442;2022-12-07T10:00:53;4.10;99.90
14122;DHT22;7139;48.114;11.442;2022-12-07T10:03:22;4.10;99.90
14122;DHT22;7139;48.114;11.442;2022-12-07T10:06:04;4.20;99.90
14122;DHT22;7139;48.114;11.442;2022-12-07T10:08:31;4.30;99.90
14122;DHT22;7139;48.114;11.442;2022-12-07T10:10:59;4.40;99.90
14122;DHT22;7139;48.114;11.442;2022-12-07T10:13:36;4.30;99.90
14122;DHT22;7139;48.114;11.442;2022-12-07T10:16:31;4.30;99.90
14122;DHT22;7139;48.114;11.442;2022-12-07T10:19:19;4.30;99.90
14122;DHT22;7139;48.114;11.442;2022-12-07T10:22:00;4.30;99.90
14122;DHT22;7139;48.114;11.442;2022-12-07T10:24:27;4.40;99.90
14122;DHT22;7139;48.114;11.442;2022-12-07T10:26:54;4.50;99.90
14122;DHT22;7139;48.114;11.442;2022-12-07T10:29:24;4.60;99.90
14122;DHT22;7139;48.114;11.442;2022-12-07T10:31:57;4.60;99.90
14122;DHT22;7139;48.114;11.442;2022-12-07T10:34:30;4.60;99.90
14122;DHT22;7139;48.114;11.442;2022-12-07T10:37:15;4.60;99.90
14122;DHT22;7139;48.114;11.442;2022-12-07T10:39:43;4.60;99.90
14122;DHT22;7139;48.114;11.442;2022-12-07T10:42:19;4.70;99.90
14122;DHT22;7139;48.114;11.442;2022-12-07T10:44:48;4.80;99.90
14122;DHT22;7139;48.114;11.442;2022-12-07T10:47:23;4.80;99.90
14122;DHT22;7139;48.114;11.442;2022-12-07T10:50:28;4.80;99.90
14122;DHT22;7139;48.114;11.442;2022-12-07T10:53:35;4.80;99.90
14122;DHT22;7139;48.114;11.442;2022-12-07T10:56:30;4.80;99.90
14122;DHT22;7139;48.114;11.442;2022-12-07T10:59:14;4.80;99.90
14122;DHT22;7139;48.114;11.442;2022-12-07T11:01:48;4.80;99.90
14122;DHT22;7139;48.114;11.442;2022-12-07T11:04:24;4.90;99.90
14122;DHT22;7139;48.114;11.442;2022-12-07T11:07:02;4.90;99.90
14122;DHT22;7139;48.114;11.442;2022-12-07T11:09:56;5.00;99.90
14122;DHT22;7139;48.114;11.442;2022-12-07T11:12:35;5.00;99.90
14122;DHT22;7139;48.114;11.442;2022-12-07T11:15:13;4.90;99.90
14122;DHT22;7139;48.114;11.442;2022-12-07T11:17:50;4.80;99.90
14122;DHT22;7139;48.114;11.442;2022-12-07T11:20:33;4.80;99.90
14122;DHT22;7139;48.114;11.442;2022-12-07T11:23:09;4.90;99.90
14122;DHT22;7139;48.114;11.442;2022-12-07T11:25:43;4.90;99.90
14122;DHT22;7139;48.114;11.442;2022-12-07T11:28:20;4.80;99.90
14122;DHT22;7139;48.114;11.442;2022-12-07T11:30:57;4.80;99.90
14122;DHT22;7139;48.114;11.442;2022-12-07T11:33:41;4.90;99.90
14122;DHT22;7139;48.114;11.442;2022-12-07T11:36:20;5.00;99.90
14122;DHT22;7139;48.114;11.442;2022-12-07T11:38:53;5.10;99.90
14122;DHT22;7139;48.114;11.442;2022-12-07T11:41:24;5.10;99.90
14122;DHT22;7139;48.114;11.442;2022-12-07T11:43:56;5.00;99.90
14122;DHT22;7139;48.114;11.442;2022-12-07T11:46:28;5.00;99.90
14122;DHT22;7139;48.114;11.442;2022-12-07T11:49:03;5.10;99.90
14122;DHT22;7139;48.114;11.442;2022-12-07T11:51:36;5.10;99.90
14122;DHT22;7139;48.114;11.442;2022-12-07T11:54:12;5.10;99.90
14122;DHT22;7139;48.114;11.442;2022-12-07T11:56:40;5.10;99.90
14122;DHT22;7139;48.114;11.442;2022-12-07T11:59:12;5.10;99.90
14122;DHT22;7139;48.114;11.442;2022-12-07T12:01:48;5.00;99.90
14122;DHT22;7139;48.114;11.442;2022-12-07T12:04:32;5.10;99.90
14122;DHT22;7139;48.114;11.442;2022-12-07T12:07:03;5.20;99.90
14122;DHT22;7139;48.114;11.442;2022-12-07T12:09:35;5.20;99.90
14122;DHT22;7139;48.114;11.442;2022-12-07T12:12:24;5.20;99.90
14122;DHT22;7139;48.114;11.442;2022-12-07T12:15:08;5.20;99.90
14122;DHT22;7139;48.114;11.442;2022-12-07T12:18:11;5.30;99.90
14122;DHT22;7139;48.114;11.442;2022-12-07T12:20:46;5.40;99.90
14122;DHT22;7139;48.114;11.442;2022-12-07T12:23:17;5.40;99.90
14122;DHT22;7139;48.114;11.442;2022-12-07T12:25:46;5.60;99.90
14122;DHT22;7139;48.114;11.442;2022-12-07T12:28:24;5.70;99.90
14122;DHT22;7139;48.114;11.442;2022-12-07T12:31:07;5.60;99.90
14122;DHT22;7139;48.114;11.442;2022-12-07T12:33:38;5.60;99.90
14122;DHT22;7139;48.114;11.442;2022-12-07T12:36:24;5.60;99.90
14122;DHT22;7139;48.114;11.442;2022-12-07T12:39:08;5.60;99.90
14122;DHT22;7139;48.114;11.442;2022-12-07T12:41:56;5.60;99.90
14122;DHT22;7139;48.114;11.442;2022-12-07T12:45:18;5.50;99.90
14122;DHT22;7139;48.114;11.442;2022-12-07T12:47:57;5.40;99.90
14122;DHT22;7139;48.114;11.442;2022-12-07T12:50:26;5.40;99.90
14122;DHT22;7139;48.114;11.442;2022-12-07T12:53:03;5.40;99.90
14122;DHT22;7139;48.114;11.442;2022-12-07T12:56:09;5.50;99.90
14122;DHT22;7139;48.114;11.442;2022-12-07T12:58:39;5.80;99.90
14122;DHT22;7139;48.114;11.442;2022-12-07T13:07:13;6.00;99.90
14122;DHT22;7139;48.114;11.442;2022-12-07T13:10:02;6.30;99.90
14122;DHT22;7139;48.114;11.442;2022-12-07T13:12:30;6.40;99.90
14122;DHT22;7139;48.114;11.442;2022-12-07T13:14:58;6.20;99.90
14122;DHT22;7139;48.114;11.442;2022-12-07T13:17:57;6.00;99.90
14122;DHT22;7139;48.114;11.442;2022-12-07T13:20:47;5.90;99.90
14122;DHT22;7139;48.114;11.442;2022-12-07T13:26:18;5.90;99.90
14122;DHT22;7139;48.114;11.442;2022-12-07T13:28:47;5.90;99.90
14122;DHT22;7139;48.114;11.442;2022-12-07T13:31:36;5.90;99.90
14122;DHT22;7139;48.114;11.442;2022-12-07T13:34:05;5.90;99.90
14122;DHT22;7139;48.114;11.442;2022-12-07T13:36:34;5.80;99.90
14122;DHT22;7139;48.114;11.442;2022-12-07T13:39:19;5.80;99.90
14122;DHT22;7139;48.114;11.442;2022-12-07T13:41:51;5.70;99.90
14122;DHT22;7139;48.114;11.442;2022-12-07T13:44:19;5.60;99.90
14122;DHT22;7139;48.114;11.442;2022-12-07T13:46:52;5.40;99.90
14122;DHT22;7139;48.114;11.442;2022-12-07T13:49:22;5.40;99.90
14122;DHT22;7139;48.114;11.442;2022-12-07T13:51:50;5.40;99.90
14122;DHT22;7139;48.114;11.442;2022-12-07T13:54:18;5.30;99.90
14122;DHT22;7139;48.114;11.442;2022-12-07T13:56:50;5.40;99.90
14122;DHT22;7139;48.114;11.442;2022-12-07T13:59:19;5.30;99.90
14122;DHT22;7139;48.114;11.442;2022-12-07T14:01:48;5.30;99.90
14122;DHT22;7139;48.114;11.442;2022-12-07T14:04:28;5.30;99.90
14122;DHT22;7139;48.114;11.442;2022-12-07T14:06:56;5.20;99.90
14122;DHT22;7139;48.114;11.442;2022-12-07T14:09:25;5.20;99.50
14122;DHT22;7139;48.114;11.442;2022-12-07T14:11:55;5.20;99.50
14122;DHT22;7139;48.114;11.442;2022-12-07T14:14:24;5.20;99.60
14122;DHT22;7139;48.114;11.442;2022-12-07T14:16:57;5.10;99.70
14122;DHT22;7139;48.114;11.442;2022-12-07T14:19:44;5.10;99.50
14122;DHT22;7139;48.114;11.442;2022-12-07T14:22:21;5.20;99.20
14122;DHT22;7139;48.114;11.442;2022-12-07T14:24:49;5.20;99.10
14122;DHT22;7139;48.114;11.442;2022-12-07T14:27:22;5.20;99.30
14122;DHT22;7139;48.114;11.442;2022-12-07T14:29:51;5.10;99.60
14122;DHT22;7139;48.114;11.442;2022-12-07T14:32:22;5.10;99.90
14122;DHT22;7139;48.114;11.442;2022-12-07T14:34:55;5.00;99.90
14122;DHT22;7139;48.114;11.442;2022-12-07T14:37:22;5.00;99.70
14122;DHT22;7139;48.114;11.442;2022-12-07T14:39:48;4.90;99.90
14122;DHT22;7139;48.114;11.442;2022-12-07T14:42:15;4.90;99.90
14122;DHT22;7139;48.114;11.442;2022-12-07T14:44:44;4.90;99.90
14122;DHT22;7139;48.114;11.442;2022-12-07T14:47:17;4.80;99.90
14122;DHT22;7139;48.114;11.442;2022-12-07T14:49:43;4.80;99.90
14122;DHT22;7139;48.114;11.442;2022-12-07T14:52:15;4.70;99.90
14122;DHT22;7139;48.114;11.442;2022-12-07T14:54:43;4.60;99.90
14122;DHT22;7139;48.114;11.442;2022-12-07T14:57:10;4.60;99.90
14122;DHT22;7139;48.114;11.442;2022-12-07T14:59:37;4.50;99.90
14122;DHT22;7139;48.114;11.442;2022-12-07T15:02:06;4.50;99.90
14122;DHT22;7139;48.114;11.442;2022-12-07T15:04:33;4.40;99.90
14122;DHT22;7139;48.114;11.442;2022-12-07T15:07:02;4.40;99.90
14122;DHT22;7139;48.114;11.442;2022-12-07T15:09:29;4.30;99.90
14122;DHT22;7139;48.114;11.442;2022-12-07T15:11:56;4.30;99.90
14122;DHT22;7139;48.114;11.442;2022-12-07T15:14:23;4.20;99.90
14122;DHT22;7139;48.114;11.442;2022-12-07T15:16:50;4.20;99.90
14122;DHT22;7139;48.114;11.442;2022-12-07T15:19:20;4.10;99.90
14122;DHT22;7139;48.114;11.442;2022-12-07T15:21:48;4.00;99.90
14122;DHT22;7139;48.114;11.442;2022-12-07T15:24:15;4.00;99.90
14122;DHT22;7139;48.114;11.442;2022-12-07T15:26:42;3.90;99.90
14122;DHT22;7139;48.114;11.442;2022-12-07T15:29:10;3.90;99.90
14122;DHT22;7139;48.114;11.442;2022-12-07T15:31:37;3.90;99.90
14122;DHT22;7139;48.114;11.442;2022-12-07T15:34:04;3.80;99.90
14122;DHT22;7139;48.114;11.442;2022-12-07T15:36:33;3.80;99.90
14122;DHT22;7139;48.114;11.442;2022-12-07T15:39:01;3.80;99.90
14122;DHT22;7139;48.114;11.442;2022-12-07T15:41:27;3.70;99.90
14122;DHT22;7139;48.114;11.442;2022-12-07T15:43:54;3.60;99.90
14122;DHT22;7139;48.114;11.442;2022-12-07T15:46:40;3.60;99.90
14122;DHT22;7139;48.114;11.442;2022-12-07T15:49:11;3.50;99.90
14122;DHT22;7139;48.114;11.442;2022-12-07T15:51:39;3.50;99.90
14122;DHT22;7139;48.114;11.442;2022-12-07T15:54:06;3.40;99.90
14122;DHT22;7139;48.114;11.442;2022-12-07T15:56:33;3.40;99.90
14122;DHT22;7139;48.114;11.442;2022-12-07T15:59:00;3.30;99.90
14122;DHT22;7139;48.114;11.442;2022-12-07T16:01:27;3.20;99.90
14122;DHT22;7139;48.114;11.442;2022-12-07T16:03:53;3.20;99.90
14122;DHT22;7139;48.114;11.442;2022-12-07T16:06:20;3.10;99.90
14122;DHT22;7139;48.114;11.442;2022-12-07T16:08:48;3.10;99.90
14122;DHT22;7139;48.114;11.442;2022-12-07T16:11:15;3.10;99.90
14122;DHT22;7139;48.114;11.442;2022-12-07T16:13:42;3.00;99.90
14122;DHT22;7139;48.114;11.442;2022-12-07T16:16:11;3.00;99.90
14122;DHT22;7139;48.114;11.442;2022-12-07T16:18:38;3.00;99.90
14122;DHT22;7139;48.114;11.442;2022-12-07T16:21:05;2.90;99.90